Time;durP1;ratioP1;P1;durP2;ratioP2;P2;SDS_P1;SDS_P2;PMS_P1;PMS_P2;Temp;Humidity;BMP_temperature;BMP_pressure;BME280_temperature;BME280_humidity;BME280_pressure;Samples;Min_cycle;Max_cycle;Signal;HPM_P1;HPM_P2
2021/03/24 00:00:19;;;;;;;15.63;9.27;;;-0.10;99.90;;;;;;5051880;28;20415;-78
2021/03/24 00:02:52;;;;;;;19.17;10.38;;;-0.10;99.90;;;;;;5036219;28;20067;-78
2021/03/24 00:05:30;;;;;;;22.30;11.32;;;-0.20;99.90;;;;;;5052123;28;20044;-78
2021/03/24 00:08:02;;;;;;;21.30;11.25;;;-0.20;99.90;;;;;;5051694;28;20049;-78
2021/03/24 00:10:35;;;;;;;16.50;10.27;;;-0.20;99.90;;;;;;5053782;28;20060;-79
2021/03/24 00:13:07;;;;;;;17.63;10.15;;;-0.20;99.90;;;;;;5074480;28;20127;-78
2021/03/24 00:15:38;;;;;;;18.45;10.98;;;-0.20;99.90;;;;;;5071195;28;20126;-77
2021/03/24 00:18:10;;;;;;;16.38;9.68;;;-0.30;99.90;;;;;;5063214;28;20040;-78
2021/03/24 00:20:39;;;;;;;18.38;10.85;;;-0.30;99.90;;;;;;5062325;28;20135;-78
2021/03/24 00:23:12;;;;;;;16.65;9.40;;;-0.40;99.90;;;;;;5071887;28;20801;-78
2021/03/24 00:25:43;;;;;;;16.35;10.18;;;-0.30;99.90;;;;;;5060430;28;20043;-77
2021/03/24 00:28:16;;;;;;;15.98;9.90;;;-0.40;99.90;;;;;;5066511;28;20441;-77
2021/03/24 00:30:49;;;;;;;18.92;10.27;;;-0.40;99.90;;;;;;5055961;28;20052;-78
2021/03/24 00:33:23;;;;;;;19.08;9.48;;;-0.40;99.90;;;;;;5088463;28;20518;-78
2021/03/24 00:35:55;;;;;;;18.95;10.43;;;-0.40;99.90;;;;;;5059718;28;20456;-78
2021/03/24 00:38:26;;;;;;;20.25;11.23;;;-0.40;99.90;;;;;;5067674;28;20036;-78
2021/03/24 00:40:58;;;;;;;21.15;10.90;;;-0.50;99.90;;;;;;5076016;28;20066;-78
2021/03/24 00:43:30;;;;;;;22.30;11.27;;;-0.50;99.90;;;;;;5076373;28;20051;-78
2021/03/24 00:46:01;;;;;;;24.80;12.32;;;-0.50;99.90;;;;;;5076872;28;20143;-78
2021/03/24 00:48:34;;;;;;;27.23;12.45;;;-0.50;99.90;;;;;;5075997;28;20044;-78
2021/03/24 00:51:06;;;;;;;24.60;13.57;;;-0.60;99.90;;;;;;5076293;28;20040;-78
2021/03/24 00:53:38;;;;;;;23.98;12.13;;;-0.60;99.90;;;;;;5093509;28;20089;-78
2021/03/24 00:56:04;;;;;;;19.70;11.85;;;-0.60;99.90;;;;;;5077317;28;20497;-78
2021/03/24 00:58:37;;;;;;;20.48;12.05;;;-0.60;99.90;;;;;;5078445;28;20040;-78
2021/03/24 01:01:09;;;;;;;20.10;12.45;;;-0.60;99.90;;;;;;5094750;28;20503;-78
2021/03/24 01:03:40;;;;;;;19.33;10.95;;;-0.60;99.90;;;;;;5078796;28;20225;-78
2021/03/24 01:06:11;;;;;;;22.10;12.77;;;-0.60;99.90;;;;;;5094912;28;20456;-78
2021/03/24 01:08:43;;;;;;;22.92;13.07;;;-0.60;99.90;;;;;;5078514;28;20044;-78
2021/03/24 01:11:14;;;;;;;20.63;11.02;;;-0.60;99.90;;;;;;5094344;28;20126;-78
2021/03/24 01:13:45;;;;;;;19.63;11.05;;;-0.70;99.90;;;;;;5078197;28;20116;-78
2021/03/24 01:16:12;;;;;;;19.65;11.00;;;-0.70;99.90;;;;;;5077678;28;20088;-78
2021/03/24 01:18:43;;;;;;;18.35;11.05;;;-0.70;99.90;;;;;;5078220;28;20036;-78
2021/03/24 01:21:14;;;;;;;16.50;10.57;;;-0.70;99.90;;;;;;5094609;28;20131;-78
2021/03/24 01:23:46;;;;;;;21.75;11.45;;;-0.70;99.90;;;;;;5078439;28;20422;-78
2021/03/24 01:26:19;;;;;;;18.52;11.63;;;-0.70;99.90;;;;;;5094388;28;20066;-78
2021/03/24 01:28:45;;;;;;;19.63;11.25;;;-0.80;99.90;;;;;;5094113;28;20568;-78
2021/03/24 01:31:12;;;;;;;17.95;10.65;;;-0.80;99.90;;;;;;5094259;28;20047;-78
2021/03/24 01:33:43;;;;;;;17.20;10.35;;;-0.80;99.90;;;;;;5094496;28;20040;-78
2021/03/24 01:36:15;;;;;;;18.15;9.90;;;-0.80;99.90;;;;;;5078048;28;20047;-78
2021/03/24 01:38:47;;;;;;;16.00;8.93;;;-0.80;99.90;;;;;;5077763;28;20044;-79
2021/03/24 01:41:20;;;;;;;15.82;8.73;;;-0.80;99.90;;;;;;5077769;28;20138;-78
2021/03/24 01:43:53;;;;;;;19.40;10.07;;;-0.80;99.90;;;;;;5077591;28;20048;-78
2021/03/24 01:46:32;;;;;;;15.35;9.13;;;-0.80;99.90;;;;;;5076879;28;20135;-78
2021/03/24 01:49:32;;;;;;;17.25;9.75;;;-0.90;99.90;;;;;;5077398;28;20048;-78
2021/03/24 01:52:06;;;;;;;15.80;8.35;;;-0.90;99.90;;;;;;5077926;28;20134;-78
2021/03/24 01:54:42;;;;;;;;;;;-0.90;99.90;;;;;;5079053;28;20082;-78
2021/03/24 01:57:22;;;;;;;12.90;8.43;;;-0.90;99.90;;;;;;5077371;28;20000;-78
2021/03/24 01:59:54;;;;;;;18.48;9.93;;;-1.00;99.90;;;;;;5093209;28;20068;-78
2021/03/24 02:02:33;;;;;;;18.13;8.30;;;-1.00;99.90;;;;;;5094650;28;20097;-78
2021/03/24 02:05:07;;;;;;;16.40;9.68;;;-1.00;99.90;;;;;;5076967;28;20123;-78
2021/03/24 02:07:45;;;;;;;18.98;10.40;;;-1.00;99.90;;;;;;5076539;28;20143;-78
2021/03/24 02:10:43;;;;;;;16.47;8.93;;;-1.00;99.90;;;;;;5093036;28;20040;-78
2021/03/24 02:13:23;;;;;;;13.65;8.23;;;-1.00;99.90;;;;;;5069690;28;20052;-78
2021/03/24 02:16:02;;;;;;;13.52;8.10;;;-1.00;99.90;;;;;;5076970;28;20119;-79
2021/03/24 02:18:36;;;;;;;18.67;9.77;;;-1.00;99.90;;;;;;5093186;28;20036;-78
2021/03/24 02:21:09;;;;;;;15.07;8.43;;;-1.10;99.90;;;;;;5076417;28;20048;-78
2021/03/24 02:23:40;;;;;;;16.08;9.20;;;-1.10;99.90;;;;;;5093356;28;20128;-78
2021/03/24 02:26:35;;;;;;;17.63;9.05;;;-1.10;99.90;;;;;;5093521;28;20102;-78
2021/03/24 02:29:11;;;;;;;19.60;9.90;;;-1.20;99.90;;;;;;5076545;28;20136;-78
2021/03/24 02:31:42;;;;;;;16.63;9.23;;;-1.10;99.90;;;;;;5076499;28;20048;-78
2021/03/24 02:34:22;;;;;;;16.95;9.90;;;-1.20;99.90;;;;;;5076599;28;20036;-78
2021/03/24 02:36:55;;;;;;;16.75;9.15;;;-1.20;99.90;;;;;;5077007;28;20044;-78
2021/03/24 02:39:29;;;;;;;17.50;9.65;;;-1.20;99.90;;;;;;5076384;28;20048;-78
2021/03/24 02:42:04;;;;;;;15.95;8.85;;;-1.20;99.90;;;;;;5076718;28;20463;-78
2021/03/24 02:44:34;;;;;;;18.05;8.93;;;-1.20;99.90;;;;;;5092876;28;20040;-78
2021/03/24 02:47:06;;;;;;;17.63;9.38;;;-1.20;99.90;;;;;;5076545;28;20044;-78
2021/03/24 02:49:41;;;;;;;15.82;8.93;;;-1.20;99.90;;;;;;5092072;28;20052;-78
2021/03/24 02:52:13;;;;;;;16.00;9.00;;;-1.20;99.90;;;;;;5092005;28;20046;-78
2021/03/24 02:54:45;;;;;;;16.60;9.18;;;-1.20;99.90;;;;;;5076701;28;20040;-78
2021/03/24 02:57:17;;;;;;;16.50;9.43;;;-1.30;99.90;;;;;;5076208;28;20040;-78
2021/03/24 02:59:51;;;;;;;21.23;10.57;;;-1.30;99.90;;;;;;5075799;28;20044;-78
2021/03/24 03:02:22;;;;;;;17.80;9.05;;;-1.30;99.90;;;;;;5075421;28;20076;-78
2021/03/24 03:04:53;;;;;;;16.77;9.48;;;-1.30;99.90;;;;;;5093422;28;20089;-78
2021/03/24 03:07:30;;;;;;;18.33;8.85;;;-1.30;99.90;;;;;;5092187;28;20130;-78
2021/03/24 03:10:11;;;;;;;16.83;8.65;;;-1.30;99.90;;;;;;5091508;28;20097;-78
2021/03/24 03:13:01;;;;;;;17.50;8.77;;;-1.40;99.90;;;;;;5091965;28;20131;-78
2021/03/24 03:15:52;;;;;;;14.77;8.82;;;-1.40;99.90;;;;;;5075744;28;20044;-78
2021/03/24 03:18:29;;;;;;;20.08;9.60;;;-1.40;99.90;;;;;;5075580;28;20047;-78
2021/03/24 03:21:06;;;;;;;17.17;8.95;;;-1.40;99.90;;;;;;5091946;28;20684;-79
2021/03/24 03:23:38;;;;;;;15.95;8.85;;;-1.40;99.90;;;;;;5075481;28;20511;-78
2021/03/24 03:26:14;;;;;;;21.92;9.50;;;-1.40;99.90;;;;;;5075501;28;20047;-78
2021/03/24 03:28:50;;;;;;;15.40;8.10;;;-1.40;99.90;;;;;;5075179;28;20499;-78
2021/03/24 03:31:26;;;;;;;16.27;9.20;;;-1.40;99.90;;;;;;5075173;28;20062;-78
2021/03/24 03:33:58;;;;;;;15.70;9.27;;;-1.40;99.90;;;;;;5090744;28;20048;-78
2021/03/24 03:36:31;;;;;;;16.55;8.45;;;-1.40;99.90;;;;;;5091871;28;20048;-78
2021/03/24 03:39:06;;;;;;;16.38;9.77;;;-1.40;99.90;;;;;;5091495;28;20031;-78
2021/03/24 03:41:38;;;;;;;17.38;8.40;;;-1.50;99.90;;;;;;5075312;28;20105;-78
2021/03/24 03:44:06;;;;;;;16.83;9.07;;;-1.50;99.90;;;;;;5074438;28;20072;-78
2021/03/24 03:46:44;;;;;;;13.65;7.47;;;-1.50;99.90;;;;;;5075537;28;20129;-78
2021/03/24 03:49:17;;;;;;;15.30;8.90;;;-1.50;99.90;;;;;;5075368;28;20050;-78
2021/03/24 03:52:01;;;;;;;17.52;9.77;;;-1.50;99.90;;;;;;5075448;28;20097;-78
2021/03/24 03:54:39;;;;;;;14.20;9.07;;;-1.50;99.90;;;;;;5075013;28;20499;-78
2021/03/24 03:57:31;;;;;;;18.05;8.32;;;-1.60;99.90;;;;;;5075234;28;20134;-78
2021/03/24 04:00:21;;;;;;;16.92;9.20;;;-1.60;99.90;;;;;;5074889;28;20048;-78
2021/03/24 04:02:55;;;;;;;20.55;9.60;;;-1.60;99.90;;;;;;5091294;28;20048;-78
2021/03/24 04:05:38;;;;;;;16.85;9.20;;;-1.60;99.90;;;;;;5075415;28;20044;-78
2021/03/24 04:08:27;;;;;;;18.43;10.60;;;-1.70;99.90;;;;;;5090965;28;20058;-78
2021/03/24 04:11:04;;;;;;;14.65;8.35;;;-1.70;99.90;;;;;;5074734;28;20040;-78
2021/03/24 04:13:42;;;;;;;16.83;10.02;;;-1.70;99.90;;;;;;5091247;28;20421;-78
2021/03/24 04:16:13;;;;;;;16.63;8.40;;;-1.70;99.90;;;;;;5091196;28;20040;-78
2021/03/24 04:19:05;;;;;;;16.17;8.45;;;-1.70;99.90;;;;;;5075066;28;20044;-78
2021/03/24 04:21:41;;;;;;;20.38;9.45;;;-1.70;99.90;;;;;;5091461;28;20044;-78
2021/03/24 04:24:18;;;;;;;33.33;14.55;;;-1.70;99.90;;;;;;5074922;28;20051;-78
2021/03/24 04:26:53;;;;;;;37.95;17.80;;;-1.70;99.90;;;;;;5090995;28;20055;-78
2021/03/24 04:29:36;;;;;;;35.35;15.13;;;-1.70;99.90;;;;;;5074393;28;20116;-78
2021/03/24 04:32:09;;;;;;;22.92;12.18;;;-1.70;99.90;;;;;;5091258;28;20127;-78
2021/03/24 04:34:41;;;;;;;19.80;10.70;;;-1.80;99.90;;;;;;5074868;28;20055;-78
2021/03/24 04:37:37;;;;;;;19.58;10.18;;;-1.80;99.90;;;;;;5091283;28;20548;-78
2021/03/24 04:40:27;;;;;;;18.52;10.27;;;-1.90;99.90;;;;;;5090942;28;20471;-78
2021/03/24 04:43:14;;;;;;;19.35;10.00;;;-1.90;99.90;;;;;;5073565;28;20417;-78
2021/03/24 04:46:12;;;;;;;20.15;10.95;;;-1.90;99.90;;;;;;5091073;28;20048;-78
2021/03/24 04:48:48;;;;;;;20.55;10.50;;;-1.90;99.90;;;;;;5067057;28;20094;-80
2021/03/24 04:51:30;;;;;;;23.35;10.18;;;-1.90;99.90;;;;;;5078222;28;20503;-78
2021/03/24 04:54:22;;;;;;;18.17;10.02;;;-1.90;99.90;;;;;;5078109;28;20100;-79
2021/03/24 04:56:52;;;;;;;19.70;10.32;;;-1.90;99.90;;;;;;5077745;28;20044;-77
2021/03/24 04:59:31;;;;;;;18.98;10.55;;;-1.90;99.90;;;;;;5094349;28;20116;-78
2021/03/24 05:02:10;;;;;;;27.40;13.20;;;-1.90;99.90;;;;;;5094355;28;20059;-78
2021/03/24 05:04:57;;;;;;;30.98;14.30;;;-1.90;99.90;;;;;;5094458;28;20048;-77
2021/03/24 05:07:48;;;;;;;28.65;15.68;;;-1.90;99.90;;;;;;5094185;28;20047;-78
2021/03/24 05:10:25;;;;;;;31.02;15.23;;;-1.90;99.90;;;;;;5078416;28;20040;-77
2021/03/24 05:13:13;;;;;;;25.67;14.75;;;-1.90;99.90;;;;;;5094281;28;20135;-77
2021/03/24 05:16:01;;;;;;;29.57;16.20;;;-1.90;99.90;;;;;;5078007;28;20098;-77
2021/03/24 05:18:28;;;;;;;27.02;15.10;;;-1.90;99.90;;;;;;5077040;28;20074;-78
2021/03/24 05:21:06;;;;;;;26.92;13.25;;;-1.90;99.90;;;;;;5078919;28;20048;-77
2021/03/24 05:23:39;;;;;;;24.70;13.13;;;-1.90;99.90;;;;;;5081319;28;20071;-77
2021/03/24 05:26:29;;;;;;;24.58;13.55;;;-1.90;99.90;;;;;;5097959;28;20067;-78
2021/03/24 05:29:10;;;;;;;24.55;13.48;;;-1.90;99.90;;;;;;5080902;28;20048;-78
2021/03/24 05:31:46;;;;;;;22.80;13.45;;;-1.90;99.90;;;;;;5082005;28;20522;-79
2021/03/24 05:34:16;;;;;;;24.52;14.15;;;-2.00;99.90;;;;;;5082730;28;20047;-78
2021/03/24 05:36:50;;;;;;;25.20;13.82;;;-2.00;99.90;;;;;;5082909;28;20066;-78
2021/03/24 05:39:33;;;;;;;25.35;14.23;;;-1.90;99.90;;;;;;5081456;28;20536;-77
2021/03/24 05:42:14;;;;;;;25.27;13.63;;;-2.00;99.90;;;;;;5082039;28;20130;-78
2021/03/24 05:44:55;;;;;;;23.75;13.57;;;-2.00;99.90;;;;;;5063551;28;20523;-78
2021/03/24 05:47:51;;;;;;;20.98;11.88;;;-2.00;99.90;;;;;;5064166;28;20080;-78
2021/03/24 05:50:47;;;;;;;30.02;14.77;;;-1.90;99.90;;;;;;5079772;28;20040;-77
2021/03/24 05:53:55;;;;;;;24.98;12.68;;;-1.90;99.90;;;;;;5064345;28;20591;-79
2021/03/24 05:56:52;;;;;;;22.80;12.50;;;-1.90;99.90;;;;;;5063222;28;20064;-79
2021/03/24 05:59:33;;;;;;;20.70;12.07;;;-1.80;99.90;;;;;;5061586;28;20130;-77
2021/03/24 06:02:13;;;;;;;28.75;15.98;;;-1.80;99.90;;;;;;5076796;28;20141;-77
2021/03/24 06:04:54;;;;;;;24.52;14.70;;;-1.60;99.90;;;;;;5062817;28;20079;-78
2021/03/24 06:08:07;;;;;;;29.55;16.13;;;-1.60;99.90;;;;;;5063593;28;20623;-78
2021/03/24 06:11:01;;;;;;;28.08;15.95;;;-1.60;99.90;;;;;;5017407;28;20686;-77
2021/03/24 06:13:27;;;;;;;28.33;15.63;;;-1.60;99.90;;;;;;5062702;28;20097;-78
2021/03/24 06:16:30;;;;;;;25.00;15.43;;;-1.60;99.90;;;;;;5050067;28;20139;-78
2021/03/24 06:19:29;;;;;;;26.40;16.23;;;-1.50;99.90;;;;;;5060221;28;20064;-78
2021/03/24 06:22:20;;;;;;;28.58;16.67;;;-1.50;99.90;;;;;;5055627;28;20116;-79
2021/03/24 06:24:56;;;;;;;22.23;14.45;;;-1.40;99.90;;;;;;5096393;28;20103;-78
2021/03/24 06:27:45;;;;;;;30.30;14.25;;;-1.40;99.90;;;;;;5078955;28;20295;-78
2021/03/24 06:30:41;;;;;;;24.85;15.00;;;-1.40;99.90;;;;;;5060886;28;20143;-78
2021/03/24 06:33:41;;;;;;;32.08;16.40;;;-1.40;99.90;;;;;;5061622;28;20525;-78
2021/03/24 06:36:50;;;;;;;26.95;14.25;;;-1.30;99.90;;;;;;5079668;28;20078;-79
2021/03/24 06:39:33;;;;;;;24.02;12.15;;;-1.30;99.90;;;;;;5054838;28;20043;-78
2021/03/24 06:42:27;;;;;;;21.47;13.23;;;-1.20;99.90;;;;;;5080951;28;20039;-78
2021/03/24 06:45:09;;;;;;;29.05;15.05;;;-1.10;99.90;;;;;;5079361;28;20294;-77
2021/03/24 06:47:50;;;;;;;27.10;16.27;;;-1.00;99.90;;;;;;5061818;28;20112;-78
2021/03/24 06:50:42;;;;;;;31.60;17.88;;;-0.90;99.90;;;;;;5062103;28;20143;-80
2021/03/24 06:53:32;;;;;;;28.55;16.92;;;-0.90;99.90;;;;;;5058911;28;20406;-78
2021/03/24 06:56:13;;;;;;;27.55;16.15;;;-0.90;99.90;;;;;;5063487;28;20036;-78
2021/03/24 06:59:07;;;;;;;25.48;14.63;;;-0.80;99.90;;;;;;5078802;28;20067;-78
2021/03/24 07:01:58;;;;;;;25.95;14.70;;;-0.80;99.90;;;;;;5076128;28;20167;-78
2021/03/24 07:04:32;;;;;;;25.88;14.88;;;-0.70;99.90;;;;;;5066773;28;20040;-78
2021/03/24 07:07:06;;;;;;;25.20;14.32;;;-0.70;99.90;;;;;;5041068;28;20534;-79
2021/03/24 07:10:11;;;;;;;26.15;13.60;;;-0.60;99.90;;;;;;5059365;28;20037;-77
2021/03/24 07:13:06;;;;;;;17.00;9.35;;;-0.50;99.90;;;;;;5062578;28;20040;-78
2021/03/24 07:15:53;;;;;;;23.15;11.45;;;-0.40;99.90;;;;;;5048617;28;20044;-78
2021/03/24 07:18:57;;;;;;;20.60;12.48;;;-0.40;99.90;;;;;;5078281;28;20073;-78
2021/03/24 07:21:59;;;;;;;24.70;13.73;;;-0.30;99.90;;;;;;5057730;28;20049;-78
2021/03/24 07:24:51;;;;;;;31.42;16.13;;;-0.20;99.90;;;;;;5047296;28;20049;-79
2021/03/24 07:28:04;;;;;;;25.20;13.80;;;0.00;99.90;;;;;;5042841;28;20102;-79
2021/03/24 07:30:58;;;;;;;25.83;14.25;;;0.10;99.90;;;;;;5056996;28;20132;-78
2021/03/24 07:33:29;;;;;;;25.55;13.20;;;0.20;99.90;;;;;;5055321;28;20058;-76
2021/03/24 07:36:24;;;;;;;29.13;15.10;;;0.20;99.90;;;;;;5056112;28;20562;-76
2021/03/24 07:39:22;;;;;;;24.73;14.85;;;0.20;99.90;;;;;;5055781;28;20071;-77
2021/03/24 07:41:55;;;;;;;25.20;14.40;;;0.30;99.90;;;;;;5060771;28;20109;-75
2021/03/24 07:44:50;;;;;;;26.52;13.98;;;0.30;99.90;;;;;;5052613;28;20058;-76
2021/03/24 07:47:33;;;;;;;25.50;14.13;;;0.40;99.90;;;;;;5002741;28;20140;-76
2021/03/24 07:50:18;;;;;;;34.97;16.95;;;0.50;99.90;;;;;;5057293;28;20046;-77
2021/03/24 07:52:59;;;;;;;48.63;22.08;;;0.60;99.90;;;;;;5072854;28;20043;-77
2021/03/24 07:55:39;;;;;;;30.55;14.75;;;0.60;99.90;;;;;;5054658;28;20143;-75
2021/03/24 07:58:34;;;;;;;31.13;15.02;;;0.70;99.90;;;;;;5056335;28;20039;-76
2021/03/24 08:01:24;;;;;;;29.20;14.85;;;0.90;99.90;;;;;;5055434;28;20093;-77
2021/03/24 08:04:03;;;;;;;29.77;15.18;;;1.00;99.90;;;;;;5056673;28;20139;-76
2021/03/24 08:06:49;;;;;;;28.92;14.70;;;1.10;99.90;;;;;;5056403;28;20085;-76
2021/03/24 08:09:44;;;;;;;26.65;14.90;;;1.20;99.90;;;;;;5056537;28;20044;-76
2021/03/24 08:12:33;;;;;;;25.38;14.63;;;1.30;99.90;;;;;;5056301;28;20094;-76
2021/03/24 08:15:18;;;;;;;29.58;15.07;;;1.40;99.90;;;;;;5057127;28;20413;-77
2021/03/24 08:18:14;;;;;;;27.73;14.13;;;1.50;99.90;;;;;;5060465;28;20071;-77
2021/03/24 08:21:15;;;;;;;30.35;17.25;;;1.70;99.90;;;;;;5060261;28;20458;-78
2021/03/24 08:24:22;;;;;;;25.23;14.82;;;1.80;99.90;;;;;;5060893;28;20048;-77
2021/03/24 08:27:00;;;;;;;23.60;13.85;;;2.00;99.90;;;;;;5028061;28;20076;-77
2021/03/24 08:29:59;;;;;;;18.17;10.80;;;2.10;99.90;;;;;;5060989;28;20064;-77
2021/03/24 08:32:33;;;;;;;24.27;14.90;;;2.20;99.90;;;;;;5061130;28;20134;-78
2021/03/24 08:35:38;;;;;;;26.88;14.20;;;2.30;99.90;;;;;;5060865;28;20381;-78
2021/03/24 08:38:46;;;;;;;27.83;14.98;;;2.50;99.90;;;;;;5061275;28;20067;-80
2021/03/24 08:41:39;;;;;;;26.05;13.25;;;2.60;99.90;;;;;;5058054;28;20048;-79
2021/03/24 08:44:21;;;;;;;24.38;14.93;;;2.80;99.90;;;;;;5050626;28;20498;-77
2021/03/24 08:47:08;;;;;;;24.88;14.45;;;2.90;99.90;;;;;;5060912;28;20150;-81
2021/03/24 08:49:46;;;;;;;25.17;14.80;;;3.10;99.90;;;;;;5059942;28;20040;-77
2021/03/24 08:52:40;;;;;;;29.85;16.85;;;3.20;99.90;;;;;;5060474;28;20036;-77
2021/03/24 08:55:21;;;;;;;27.67;15.77;;;3.40;99.90;;;;;;5067066;28;20411;-77
2021/03/24 08:57:55;;;;;;;26.67;16.23;;;3.60;99.90;;;;;;5092789;28;20040;-82
2021/03/24 09:00:33;;;;;;;27.23;15.10;;;3.70;99.90;;;;;;5095126;28;20139;-80
2021/03/24 09:03:11;;;;;;;26.42;14.57;;;3.90;99.90;;;;;;5080082;28;20188;-80
2021/03/24 09:06:04;;;;;;;21.13;13.82;;;4.00;99.90;;;;;;5081112;28;20043;-79
2021/03/24 09:08:38;;;;;;;21.92;13.50;;;4.20;99.90;;;;;;5067166;28;20048;-77
2021/03/24 09:11:27;;;;;;;24.60;13.70;;;4.30;99.90;;;;;;5064023;28;20043;-78
2021/03/24 09:14:04;;;;;;;24.40;13.60;;;4.40;99.90;;;;;;5063759;28;20048;-78
2021/03/24 09:17:21;;;;;;;20.48;13.23;;;4.50;99.90;;;;;;5063613;28;20043;-77
2021/03/24 09:20:01;;;;;;;27.50;14.30;;;4.70;99.90;;;;;;5065118;28;20127;-80
2021/03/24 09:23:08;;;;;;;21.80;12.60;;;4.90;99.90;;;;;;5069741;28;20685;-78
2021/03/24 09:25:58;;;;;;;22.27;12.15;;;5.00;99.90;;;;;;5086671;28;20131;-79
2021/03/24 09:28:30;;;;;;;20.58;12.38;;;5.20;99.90;;;;;;5042042;28;20131;-77
2021/03/24 09:31:22;;;;;;;20.10;12.50;;;5.40;99.90;;;;;;5042541;28;20047;-77
2021/03/24 09:34:25;;;;;;;19.58;11.75;;;5.50;99.90;;;;;;5058019;28;20063;-78
2021/03/24 09:37:02;;;;;;;90.78;36.40;;;5.70;99.90;;;;;;5045791;28;20134;-79
2021/03/24 09:39:43;;;;;;;25.67;14.20;;;5.80;99.90;;;;;;5076344;28;20140;-78
2021/03/24 09:42:39;;;;;;;21.92;11.60;;;6.00;99.90;;;;;;5074032;28;20040;-77
2021/03/24 09:45:13;;;;;;;19.35;10.50;;;6.10;99.90;;;;;;5062166;28;20139;-80
2021/03/24 09:48:14;;;;;;;16.27;10.85;;;6.30;99.90;;;;;;5083450;28;20046;-78
2021/03/24 09:51:07;;;;;;;14.95;9.10;;;6.40;99.90;;;;;;5067045;28;20076;-78
2021/03/24 09:53:40;;;;;;;16.98;9.43;;;6.50;99.90;;;;;;5083042;28;20497;-78
2021/03/24 09:56:23;;;;;;;16.45;9.20;;;6.70;99.90;;;;;;5056226;28;20473;-78
2021/03/24 09:59:00;;;;;;;15.55;9.63;;;6.80;99.90;;;;;;5062987;28;20410;-78
2021/03/24 10:01:47;;;;;;;19.70;10.90;;;6.90;99.90;;;;;;5076212;28;20441;-78
2021/03/24 10:04:19;;;;;;;16.02;10.43;;;7.10;99.90;;;;;;5063229;28;20060;-78
2021/03/24 10:07:15;;;;;;;15.60;9.68;;;7.20;99.90;;;;;;5058544;28;20050;-79
2021/03/24 10:09:57;;;;;;;15.55;8.95;;;7.30;99.90;;;;;;5068274;28;20652;-78
2021/03/24 10:12:35;;;;;;;17.98;10.32;;;7.40;99.90;;;;;;5094349;28;20044;-78
2021/03/24 10:15:43;;;;;;;21.55;9.52;;;7.50;99.90;;;;;;5068970;28;20113;-78
2021/03/24 10:18:34;;;;;;;16.98;10.20;;;7.60;99.90;;;;;;5066290;28;20071;-80
2021/03/24 10:21:16;;;;;;;17.67;9.52;;;7.70;99.90;;;;;;5075211;28;20048;-78
2021/03/24 10:24:00;;;;;;;18.98;10.38;;;7.80;99.90;;;;;;5074429;28;20066;-78
2021/03/24 10:26:45;;;;;;;16.15;9.93;;;7.90;99.90;;;;;;5068606;28;20046;-78
2021/03/24 10:29:48;;;;;;;17.80;10.20;;;8.10;99.90;;;;;;5081001;28;20143;-79
2021/03/24 10:32:35;;;;;;;17.33;10.73;;;8.20;99.90;;;;;;5057614;28;20149;-80
2021/03/24 10:35:42;;;;;;;19.40;10.73;;;8.20;99.90;;;;;;5077524;28;20457;-80
2021/03/24 10:38:34;;;;;;;16.83;10.32;;;8.30;99.90;;;;;;5055865;28;20055;-79
2021/03/24 10:41:20;;;;;;;14.48;9.00;;;8.40;99.90;;;;;;5039619;28;20036;-78
2021/03/24 10:44:18;;;;;;;14.98;9.75;;;8.50;99.90;;;;;;5056048;28;20411;-78
2021/03/24 10:47:07;;;;;;;14.85;9.85;;;8.70;99.90;;;;;;5039630;28;20044;-78
2021/03/24 10:50:01;;;;;;;26.40;9.63;;;8.80;99.70;;;;;;5055017;28;20048;-79
2021/03/24 10:52:37;;;;;;;16.48;9.40;;;8.90;98.50;;;;;;5055523;28;20495;-83
2021/03/24 10:55:20;;;;;;;14.90;10.05;;;9.00;98.20;;;;;;5090301;28;20040;-78
2021/03/24 10:58:31;;;;;;;17.05;10.07;;;9.00;98.40;;;;;;5091986;28;20123;-78
2021/03/24 11:01:06;;;;;;;14.10;9.40;;;9.10;98.20;;;;;;5091989;28;20575;-79
2021/03/24 11:03:58;;;;;;;14.57;9.30;;;9.20;98.20;;;;;;5075952;28;20521;-78
2021/03/24 11:06:36;;;;;;;16.40;9.25;;;9.20;98.60;;;;;;5075225;28;20054;-78
2021/03/24 11:09:14;;;;;;;17.52;9.65;;;9.40;99.70;;;;;;5075910;28;20132;-80
2021/03/24 11:12:00;;;;;;;20.15;10.57;;;9.50;99.40;;;;;;5054248;28;20135;-78
2021/03/24 11:14:32;;;;;;;16.33;9.80;;;9.60;97.20;;;;;;5085755;28;20133;-79
2021/03/24 11:17:04;;;;;;;14.45;9.88;;;9.70;95.60;;;;;;5072151;28;20040;-78
2021/03/24 11:19:43;;;;;;;14.30;9.43;;;9.70;96.10;;;;;;5063931;28;20452;-78
2021/03/24 11:22:14;;;;;;;16.67;10.43;;;9.80;96.00;;;;;;5071722;28;20050;-78
2021/03/24 11:25:03;;;;;;;16.45;10.15;;;9.90;96.10;;;;;;5039275;28;20060;-78
2021/03/24 11:27:40;;;;;;;17.95;9.73;;;10.00;99.10;;;;;;5072830;28;20101;-78
2021/03/24 11:30:20;;;;;;;15.90;10.18;;;10.10;98.50;;;;;;5062942;28;20152;-79
2021/03/24 11:32:49;;;;;;;13.80;9.68;;;10.20;95.60;;;;;;5067500;28;20044;-78
2021/03/24 11:35:28;;;;;;;17.73;9.65;;;10.20;93.50;;;;;;5073985;28;20062;-79
2021/03/24 11:38:10;;;;;;;15.90;9.63;;;10.20;94.80;;;;;;5058082;28;20101;-78
2021/03/24 11:40:56;;;;;;;14.27;8.38;;;10.20;92.60;;;;;;5050490;28;20086;-79
2021/03/24 11:43:32;;;;;;;16.42;9.48;;;10.30;91.90;;;;;;5057243;28;20048;-78
2021/03/24 11:46:29;;;;;;;16.88;9.70;;;10.30;92.80;;;;;;5055189;28;20049;-77
2021/03/24 11:49:42;;;;;;;16.27;9.68;;;10.50;92.80;;;;;;5061731;28;20101;-81
2021/03/24 11:52:21;;;;;;;15.77;9.10;;;10.60;91.80;;;;;;5052069;28;20047;-78
2021/03/24 11:55:05;;;;;;;14.40;8.50;;;10.70;93.20;;;;;;5091348;28;20089;-78
2021/03/24 11:58:48;;;;;;;11.70;8.00;;;10.80;91.90;;;;;;5057350;28;20491;-78
2021/03/24 12:01:27;;;;;;;13.27;8.18;;;11.00;89.20;;;;;;5054983;28;20044;-78
2021/03/24 12:04:16;;;;;;;10.63;6.75;;;11.00;85.90;;;;;;5054689;28;20132;-78
2021/03/24 12:06:45;;;;;;;11.75;7.22;;;11.10;87.00;;;;;;5065212;28;20052;-78
2021/03/24 12:09:28;;;;;;;10.57;7.07;;;11.20;83.50;;;;;;5057014;28;20054;-78
2021/03/24 12:12:21;;;;;;;13.80;8.00;;;11.30;83.50;;;;;;5072760;28;20406;-80
2021/03/24 12:15:05;;;;;;;11.63;7.68;;;11.30;83.80;;;;;;5050269;28;20469;-78
2021/03/24 12:17:34;;;;;;;;;;;11.20;85.30;;;;;;5056224;28;20506;-79
2021/03/24 12:20:21;;;;;;;12.10;7.15;;;11.20;84.70;;;;;;5053613;28;19927;-78
2021/03/24 12:22:57;;;;;;;13.32;7.75;;;11.30;80.80;;;;;;5069193;28;20052;-78
2021/03/24 12:25:34;;;;;;;10.63;6.50;;;11.30;78.80;;;;;;5057752;28;20047;-79
2021/03/24 12:28:09;;;;;;;13.60;6.40;;;11.40;78.00;;;;;;5073089;28;20134;-78
2021/03/24 12:30:45;;;;;;;12.70;6.20;;;11.50;70.60;;;;;;5071803;28;20032;-78
2021/03/24 12:33:19;;;;;;;12.45;6.88;;;11.50;70.40;;;;;;5071310;28;20036;-78
2021/03/24 12:35:52;;;;;;;13.48;7.35;;;11.50;69.00;;;;;;5057206;28;20048;-79
2021/03/24 12:38:22;;;;;;;9.75;5.82;;;11.50;71.90;;;;;;5073355;28;20105;-79
2021/03/24 12:41:01;;;;;;;15.98;6.20;;;11.60;70.90;;;;;;5057736;28;20134;-78
2021/03/24 12:43:36;;;;;;;10.00;5.30;;;11.70;72.20;;;;;;5055116;28;20044;-78
2021/03/24 12:46:09;;;;;;;11.77;5.80;;;11.80;63.70;;;;;;5062672;28;20044;-79
2021/03/24 12:48:45;;;;;;;9.90;5.60;;;11.90;62.10;;;;;;5048209;28;20396;-79
2021/03/24 12:51:36;;;;;;;10.30;6.63;;;12.00;62.70;;;;;;5077221;28;20047;-81
2021/03/24 12:54:13;;;;;;;8.20;4.88;;;12.00;64.70;;;;;;5043952;28;20495;-79
2021/03/24 12:56:51;;;;;;;10.57;5.25;;;11.90;64.70;;;;;;5040129;28;20094;-79
2021/03/24 12:59:58;;;;;;;7.82;5.03;;;12.00;60.30;;;;;;5038903;28;20445;-79
2021/03/24 13:02:52;;;;;;;8.05;4.60;;;12.00;60.00;;;;;;5040280;28;20049;-80
2021/03/24 13:05:43;;;;;;;9.15;5.70;;;12.00;58.90;;;;;;5039954;28;20102;-80
2021/03/24 13:08:35;;;;;;;7.53;5.10;;;12.00;60.90;;;;;;5038209;28;20131;-79
2021/03/24 13:11:37;;;;;;;7.25;4.60;;;12.10;58.40;;;;;;5057452;28;20070;-80
2021/03/24 13:14:55;;;;;;;6.65;4.43;;;12.10;55.20;;;;;;5069194;28;20047;-79
2021/03/24 13:17:37;;;;;;;7.22;3.88;;;12.20;54.40;;;;;;5058564;28;20123;-79
2021/03/24 13:20:27;;;;;;;6.13;3.60;;;12.30;54.60;;;;;;5063154;28;20048;-78
2021/03/24 13:22:59;;;;;;;7.53;4.82;;;12.40;50.80;;;;;;5074502;28;20491;-80
2021/03/24 13:25:40;;;;;;;7.90;3.63;;;12.40;54.70;;;;;;5074685;28;20085;-79
2021/03/24 13:28:19;;;;;;;9.52;4.90;;;12.50;53.70;;;;;;5060103;28;20119;-81
2021/03/24 13:31:15;;;;;;;10.77;4.97;;;12.60;53.00;;;;;;5059433;28;20132;-80
2021/03/24 13:34:17;;;;;;;5.10;3.65;;;12.70;54.30;;;;;;5058210;28;20040;-80
2021/03/24 13:36:56;;;;;;;8.63;4.63;;;12.60;54.00;;;;;;5057435;28;20059;-77
2021/03/24 13:39:36;;;;;;;10.75;4.63;;;12.70;57.10;;;;;;5077985;28;20032;-79
2021/03/24 13:42:36;;;;;;;8.32;5.25;;;12.80;57.70;;;;;;5058233;28;20058;-81
2021/03/24 13:45:06;;;;;;;9.25;4.68;;;12.90;55.80;;;;;;5062334;28;20047;-81
2021/03/24 13:48:20;;;;;;;6.32;4.75;;;12.90;56.30;;;;;;5078673;28;20047;-80
2021/03/24 13:51:07;;;;;;;8.73;4.70;;;13.00;55.70;;;;;;5080059;28;20043;-79
2021/03/24 13:53:48;;;;;;;10.07;5.28;;;13.00;55.80;;;;;;5096523;28;20040;-78